Time;durP1;ratioP1;P1;durP2;ratioP2;P2;SDS_P1;SDS_P2;PMS_P1;PMS_P2;Temp;Humidity;BMP_temperature;BMP_pressure;BME280_temperature;BME280_humidity;BME280_pressure;Samples;Min_cycle;Max_cycle;Signal;HPM_P1;HPM_P2
2022/04/05 00:00:46;;;;;;;4.38;1.77;;;20.80;77.90;;;;;;5006361;28;20058;-77
2022/04/05 00:03:13;;;;;;;7.65;1.77;;;20.80;77.90;;;;;;5004758;28;20086;-68
2022/04/05 00:05:39;;;;;;;10.10;1.65;;;20.80;77.90;;;;;;5008584;28;20406;-76
2022/04/05 00:08:06;;;;;;;3.78;1.25;;;20.80;78.00;;;;;;5007176;28;20034;-70
2022/04/05 00:10:32;;;;;;;6.93;1.50;;;20.80;77.90;;;;;;5008374;28;20026;-68
2022/04/05 00:12:59;;;;;;;5.78;1.33;;;20.80;77.90;;;;;;5008396;28;20026;-74
2022/04/05 00:15:25;;;;;;;7.63;1.38;;;20.80;77.80;;;;;;5005178;28;20018;-71
2022/04/05 00:17:52;;;;;;;4.35;1.20;;;20.80;77.80;;;;;;5009473;28;20088;-74
2022/04/05 00:20:18;;;;;;;7.93;1.98;;;20.70;77.70;;;;;;5008119;28;20548;-69
2022/04/05 00:22:45;;;;;;;4.15;1.98;;;20.70;77.70;;;;;;5007205;28;20046;-68
2022/04/05 00:25:11;;;;;;;3.97;1.15;;;20.80;77.80;;;;;;5007401;28;20030;-68
2022/04/05 00:27:37;;;;;;;11.98;1.80;;;20.70;77.80;;;;;;5010096;28;20096;-72
2022/04/05 00:30:04;;;;;;;6.80;1.65;;;20.70;77.90;;;;;;5006116;28;20047;-68
2022/04/05 00:32:31;;;;;;;7.28;1.33;;;20.70;78.00;;;;;;5004896;28;20026;-68
2022/04/05 00:34:57;;;;;;;7.97;1.60;;;20.70;78.00;;;;;;5007437;28;20037;-69
2022/04/05 00:37:24;;;;;;;5.70;1.30;;;20.70;78.00;;;;;;5007415;28;20097;-69
2022/04/05 00:39:50;;;;;;;5.57;1.90;;;20.70;78.00;;;;;;5003872;28;20057;-70
2022/04/05 00:42:18;;;;;;;7.05;1.25;;;20.70;78.00;;;;;;5008820;28;20045;-72
2022/04/05 00:44:44;;;;;;;3.28;1.45;;;20.70;78.00;;;;;;5006565;28;20180;-68
2022/04/05 00:47:21;;;;;;;6.63;1.67;;;20.70;78.00;;;;;;5007679;28;20126;-68
2022/04/05 00:49:50;;;;;;;6.13;1.45;;;20.70;77.90;;;;;;5009349;28;20054;-68
2022/04/05 00:52:19;;;;;;;7.55;1.83;;;20.70;77.90;;;;;;5007449;28;20481;-73
2022/04/05 00:54:49;;;;;;;19.25;2.63;;;20.70;77.80;;;;;;5002793;28;20071;-68
2022/04/05 00:57:18;;;;;;;11.43;2.17;;;20.60;77.80;;;;;;5006671;28;20473;-68
2022/04/05 00:59:47;;;;;;;7.47;1.27;;;20.70;77.80;;;;;;5003603;28;20108;-74
2022/04/05 01:02:20;;;;;;;3.92;2.20;;;20.70;77.80;;;;;;5004494;28;20073;-68
2022/04/05 01:04:48;;;;;;;7.38;1.65;;;20.60;77.70;;;;;;5005872;28;20075;-69
2022/04/05 01:07:16;;;;;;;4.00;1.20;;;20.60;77.70;;;;;;5007287;28;20061;-69
2022/04/05 01:09:43;;;;;;;9.18;1.80;;;20.60;77.80;;;;;;5006947;28;20052;-72
2022/04/05 01:12:11;;;;;;;5.35;1.67;;;20.60;77.70;;;;;;5008625;28;20439;-68
2022/04/05 01:14:39;;;;;;;8.23;1.48;;;20.60;77.70;;;;;;5006490;28;20026;-68
2022/04/05 01:17:07;;;;;;;5.90;1.40;;;20.60;77.70;;;;;;5005610;28;20022;-69
2022/04/05 01:19:35;;;;;;;5.20;1.50;;;20.60;77.70;;;;;;5006364;28;20033;-73
2022/04/05 01:22:02;;;;;;;3.53;1.33;;;20.50;77.60;;;;;;5005029;28;20041;-71
2022/04/05 01:24:29;;;;;;;3.75;1.20;;;20.50;77.70;;;;;;5001527;28;20080;-69
2022/04/05 01:26:58;;;;;;;14.23;2.00;;;20.50;77.80;;;;;;5006069;28;20030;-75
2022/04/05 01:29:26;;;;;;;8.77;1.13;;;20.50;77.80;;;;;;5006952;28;20038;-75
2022/04/05 01:32:00;;;;;;;6.07;1.50;;;20.50;77.90;;;;;;5007267;28;20055;-68
2022/04/05 01:34:29;;;;;;;15.57;2.38;;;20.50;78.00;;;;;;5004689;28;20032;-72
2022/04/05 01:36:58;;;;;;;10.90;1.85;;;20.40;77.90;;;;;;5009073;28;20049;-72
2022/04/05 01:39:28;;;;;;;10.25;2.35;;;20.40;78.00;;;;;;5006534;28;20026;-76
2022/04/05 01:41:57;;;;;;;15.82;2.53;;;20.40;78.10;;;;;;5004281;28;20033;-72
2022/04/05 01:44:26;;;;;;;12.57;2.30;;;20.40;78.00;;;;;;5002185;28;20026;-70
2022/04/05 01:46:53;;;;;;;13.05;2.05;;;20.40;78.30;;;;;;5006041;28;20575;-68
2022/04/05 01:49:20;;;;;;;12.23;2.08;;;20.40;78.50;;;;;;5007134;28;20052;-75
2022/04/05 01:51:48;;;;;;;11.05;1.88;;;20.40;78.80;;;;;;5006788;28;20017;-68
2022/04/05 01:54:17;;;;;;;6.85;1.90;;;20.50;79.00;;;;;;5011990;28;20896;-69
2022/04/05 01:56:49;;;;;;;23.23;2.53;;;20.50;79.00;;;;;;5008945;28;20038;-69
2022/04/05 01:59:18;;;;;;;11.20;3.00;;;20.40;79.00;;;;;;5010451;28;20053;-75
2022/04/05 02:01:45;;;;;;;7.55;2.00;;;20.50;79.00;;;;;;5010706;28;20083;-73
2022/04/05 02:04:12;;;;;;;8.90;2.53;;;20.40;78.90;;;;;;5008873;28;20473;-70
2022/04/05 02:06:40;;;;;;;8.05;1.95;;;20.50;78.80;;;;;;5009317;28;20079;-73
2022/04/05 02:09:08;;;;;;;6.05;1.63;;;20.50;78.70;;;;;;5007054;28;20014;-71
2022/04/05 02:11:35;;;;;;;6.25;1.67;;;20.40;78.60;;;;;;5009300;28;20037;-67
2022/04/05 02:14:01;;;;;;;3.85;1.50;;;20.50;78.60;;;;;;5011837;28;20022;-71
2022/04/05 02:16:28;;;;;;;10.93;1.80;;;20.40;78.50;;;;;;5009977;28;20026;-71
2022/04/05 02:18:54;;;;;;;7.63;1.45;;;20.50;78.60;;;;;;5012341;28;20109;-67
2022/04/05 02:21:22;;;;;;;8.13;1.23;;;20.50;78.60;;;;;;5009543;28;20068;-67
2022/04/05 02:23:48;;;;;;;9.88;1.88;;;20.40;78.60;;;;;;5009565;28;20030;-67
2022/04/05 02:26:15;;;;;;;5.40;1.65;;;20.50;78.70;;;;;;5007544;28;20046;-67
2022/04/05 02:28:42;;;;;;;6.32;1.52;;;20.50;78.70;;;;;;5011189;28;20076;-68
2022/04/05 02:31:09;;;;;;;6.10;1.63;;;20.50;78.60;;;;;;5010062;28;20144;-67
2022/04/05 02:33:36;;;;;;;4.40;1.45;;;20.50;78.50;;;;;;5009218;28;20388;-75
2022/04/05 02:36:03;;;;;;;4.40;1.00;;;20.40;78.50;;;;;;5003703;28;20058;-72
2022/04/05 02:38:30;;;;;;;4.97;1.10;;;20.50;78.60;;;;;;5005640;28;20025;-67
2022/04/05 02:41:02;;;;;;;3.83;1.15;;;20.50;78.60;;;;;;5007266;28;20026;-67
2022/04/05 02:43:28;;;;;;;9.40;2.28;;;20.50;78.60;;;;;;5008199;28;20801;-73
2022/04/05 02:45:55;;;;;;;3.35;1.40;;;20.50;78.40;;;;;;5010045;28;20389;-67
2022/04/05 02:48:23;;;;;;;20.90;1.85;;;20.50;78.40;;;;;;5008206;28;20029;-71
2022/04/05 02:50:50;;;;;;;14.77;1.65;;;20.50;78.30;;;;;;5010462;28;20469;-68
2022/04/05 02:53:17;;;;;;;9.40;1.58;;;20.40;78.30;;;;;;5009984;28;20022;-68
2022/04/05 02:55:43;;;;;;;7.65;2.00;;;20.40;78.20;;;;;;5008948;28;20045;-67
2022/04/05 02:58:12;;;;;;;4.10;0.98;;;20.40;78.20;;;;;;5007815;28;20049;-72
2022/04/05 03:00:39;;;;;;;7.20;1.50;;;20.40;78.10;;;;;;5005868;28;20026;-72
2022/04/05 03:03:06;;;;;;;9.13;1.17;;;20.40;78.30;;;;;;5007710;28;20025;-68
2022/04/05 03:05:32;;;;;;;5.78;1.63;;;20.40;78.20;;;;;;5007177;28;20052;-68
2022/04/05 03:07:59;;;;;;;11.60;1.40;;;20.30;78.10;;;;;;5011033;28;20049;-69
2022/04/05 03:10:27;;;;;;;3.25;1.23;;;20.30;78.10;;;;;;5008274;28;20010;-69
2022/04/05 03:12:53;;;;;;;10.15;1.85;;;20.30;78.10;;;;;;5009217;28;20148;-75
2022/04/05 03:15:19;;;;;;;16.75;1.70;;;20.30;78.10;;;;;;5010458;28;20029;-72
2022/04/05 03:17:47;;;;;;;9.40;1.50;;;20.30;78.00;;;;;;5005966;28;20068;-69
2022/04/05 03:20:14;;;;;;;10.82;1.30;;;20.30;77.80;;;;;;5010309;28;20053;-68
2022/04/05 03:22:44;;;;;;;16.92;2.80;;;20.30;77.80;;;;;;5009836;28;20022;-68
2022/04/05 03:25:11;;;;;;;13.00;1.73;;;20.30;77.70;;;;;;5010680;28;20046;-70
2022/04/05 03:27:41;;;;;;;4.00;1.95;;;20.30;77.50;;;;;;5009010;28;20080;-68
2022/04/05 03:30:13;;;;;;;5.57;1.60;;;20.30;77.40;;;;;;5006713;28;20017;-69
2022/04/05 03:32:39;;;;;;;6.25;1.95;;;20.30;77.20;;;;;;5009859;28;20033;-68
2022/04/05 03:35:07;;;;;;;10.23;1.40;;;20.30;77.00;;;;;;5008344;28;20105;-72
2022/04/05 03:37:34;;;;;;;9.57;1.70;;;20.20;76.70;;;;;;5008491;28;20796;-71
2022/04/05 03:40:01;;;;;;;5.22;1.83;;;20.20;76.50;;;;;;5008045;28;20038;-68
2022/04/05 03:42:27;;;;;;;11.90;2.25;;;20.20;76.30;;;;;;5008789;28;20168;-69
2022/04/05 03:44:54;;;;;;;11.05;1.70;;;20.20;76.20;;;;;;5008299;28;20096;-74
2022/04/05 03:47:21;;;;;;;5.15;1.67;;;20.10;75.90;;;;;;5005005;28;20512;-70
2022/04/05 03:49:48;;;;;;;6.38;2.47;;;20.10;75.90;;;;;;5005105;28;20030;-70
2022/04/05 03:52:14;;;;;;;9.95;1.30;;;20.10;75.70;;;;;;5006659;28;20096;-74
2022/04/05 03:54:41;;;;;;;7.63;1.90;;;20.10;75.60;;;;;;5005415;28;20026;-68
2022/04/05 03:57:08;;;;;;;16.13;7.50;;;20.10;75.20;;;;;;5004531;28;20369;-75
2022/04/05 03:59:34;;;;;;;24.92;13.57;;;20.10;76.00;;;;;;5008534;28;20041;-73
2022/04/05 04:02:01;;;;;;;46.20;34.20;;;20.10;76.30;;;;;;5005072;28;20397;-70
2022/04/05 04:04:28;;;;;;;23.80;15.13;;;20.00;75.70;;;;;;5006361;28;20026;-68
2022/04/05 04:06:54;;;;;;;13.10;7.13;;;20.00;75.60;;;;;;5007708;28;20014;-72
2022/04/05 04:09:21;;;;;;;7.90;3.05;;;20.00;75.40;;;;;;5004599;28;20473;-70
2022/04/05 04:11:48;;;;;;;6.15;2.58;;;20.00;75.40;;;;;;5005548;28;20034;-73
2022/04/05 04:14:15;;;;;;;9.10;2.17;;;20.00;75.40;;;;;;5004351;28;20029;-71
2022/04/05 04:16:42;;;;;;;9.68;1.63;;;20.00;75.40;;;;;;5008123;28;20018;-68
2022/04/05 04:19:08;;;;;;;23.48;3.40;;;20.00;75.40;;;;;;5008683;28;20032;-69
2022/04/05 04:21:35;;;;;;;27.00;9.30;;;20.00;75.30;;;;;;5007355;28;20026;-67
2022/04/05 04:24:03;;;;;;;18.20;8.32;;;20.00;75.60;;;;;;5006526;28;20597;-68
2022/04/05 04:26:29;;;;;;;15.52;4.82;;;20.00;75.50;;;;;;5005116;28;20481;-68
2022/04/05 04:28:59;;;;;;;10.82;2.67;;;20.00;75.30;;;;;;5005347;28;20398;-75
2022/04/05 04:31:25;;;;;;;6.43;1.98;;;20.00;75.30;;;;;;5005285;28;20040;-68
2022/04/05 04:33:52;;;;;;;18.48;1.70;;;20.00;74.50;;;;;;5005941;28;20022;-77
2022/04/05 04:36:19;;;;;;;11.15;1.50;;;19.90;74.80;;;;;;5004062;28;20017;-70
2022/04/05 04:38:46;;;;;;;2.45;1.00;;;19.90;75.30;;;;;;5004728;28;20757;-68
2022/04/05 04:41:12;;;;;;;6.15;1.48;;;19.80;75.60;;;;;;5009250;28;20025;-68
2022/04/05 04:43:39;;;;;;;4.63;1.02;;;19.80;76.00;;;;;;5002028;28;20010;-71
2022/04/05 04:46:05;;;;;;;4.38;0.88;;;19.90;76.10;;;;;;5003713;28;20014;-68
2022/04/05 04:48:32;;;;;;;9.25;1.30;;;19.90;76.00;;;;;;5007888;28;20026;-71
2022/04/05 04:50:59;;;;;;;22.15;2.13;;;19.90;75.90;;;;;;5009358;28;20018;-68
2022/04/05 04:53:25;;;;;;;5.88;0.80;;;19.90;75.90;;;;;;5006322;28;20045;-77
2022/04/05 04:55:52;;;;;;;6.57;1.42;;;19.90;76.00;;;;;;5007996;28;20045;-76
2022/04/05 04:58:19;;;;;;;7.47;1.42;;;19.90;76.10;;;;;;5006854;28;20048;-70
2022/04/05 05:00:46;;;;;;;4.95;1.15;;;19.90;75.80;;;;;;5006703;28;20014;-70
2022/04/05 05:03:12;;;;;;;4.05;0.68;;;19.90;75.90;;;;;;5009281;28;20428;-69
2022/04/05 05:05:39;;;;;;;2.05;0.98;;;20.00;76.30;;;;;;5005250;28;20057;-69
2022/04/05 05:08:06;;;;;;;10.23;1.20;;;19.90;76.50;;;;;;5007101;28;20034;-69
2022/04/05 05:10:32;;;;;;;7.22;1.35;;;19.90;77.20;;;;;;5006359;28;20013;-70
2022/04/05 05:12:58;;;;;;;3.45;0.80;;;19.90;77.80;;;;;;5007826;28;20496;-72
2022/04/05 05:15:25;;;;;;;5.30;0.90;;;19.90;78.40;;;;;;5006914;28;20468;-72
2022/04/05 05:17:53;;;;;;;2.17;0.80;;;19.90;79.00;;;;;;5021781;28;20076;-78
2022/04/05 05:20:19;;;;;;;3.33;0.75;;;19.90;79.50;;;;;;5003023;28;20508;-76
2022/04/05 05:22:46;;;;;;;4.47;1.00;;;19.90;79.80;;;;;;5005429;28;20469;-75
2022/04/05 05:25:12;;;;;;;9.73;1.85;;;19.90;80.00;;;;;;5008927;28;20018;-74
2022/04/05 05:27:39;;;;;;;4.60;1.55;;;19.90;80.20;;;;;;5006668;28;20046;-74
2022/04/05 05:30:10;;;;;;;4.68;0.80;;;19.90;80.20;;;;;;5007356;28;20097;-72
2022/04/05 05:32:49;;;;;;;1.80;0.88;;;19.90;80.20;;;;;;5004477;28;20447;-74
2022/04/05 05:35:16;;;;;;;3.70;0.80;;;19.80;80.10;;;;;;5009112;28;20046;-69
2022/04/05 05:37:43;;;;;;;3.05;1.45;;;19.90;80.10;;;;;;5005911;28;20107;-78
2022/04/05 05:40:12;;;;;;;5.43;0.80;;;19.90;80.80;;;;;;5007075;28;20026;-78
2022/04/05 05:42:53;;;;;;;1.73;0.60;;;19.90;80.00;;;;;;5006700;28;20882;-78
2022/04/05 05:45:20;;;;;;;4.20;1.40;;;19.90;79.90;;;;;;5007218;28;20532;-72
2022/04/05 05:47:47;;;;;;;1.35;0.82;;;19.90;79.90;;;;;;5006040;28;20038;-69
2022/04/05 05:50:14;;;;;;;4.10;1.52;;;19.90;79.90;;;;;;5006363;28;20401;-75
2022/04/05 05:52:42;;;;;;;6.18;1.33;;;19.90;79.90;;;;;;5003543;28;20084;-70
2022/04/05 05:55:10;;;;;;;6.93;1.50;;;19.90;79.80;;;;;;5009277;28;20037;-69
2022/04/05 05:57:37;;;;;;;4.70;1.48;;;20.00;79.80;;;;;;5007502;28;20053;-70
2022/04/05 06:00:06;;;;;;;6.65;1.52;;;19.90;79.50;;;;;;5007561;28;20015;-70
2022/04/05 06:02:40;;;;;;;7.13;1.90;;;19.90;79.50;;;;;;5005617;28;20104;-76
2022/04/05 06:05:08;;;;;;;5.15;1.13;;;19.90;79.80;;;;;;5007184;28;20109;-70
2022/04/05 06:07:35;;;;;;;6.38;2.40;;;19.90;79.90;;;;;;5005299;28;20057;-74
2022/04/05 06:10:04;;;;;;;1.58;0.60;;;19.90;80.00;;;;;;5005151;28;20018;-69
2022/04/05 06:12:31;;;;;;;3.70;1.83;;;19.80;80.00;;;;;;5008029;28;20430;-70
2022/04/05 06:14:58;;;;;;;9.48;1.35;;;19.90;80.30;;;;;;5004221;28;20377;-69
2022/04/05 06:17:24;;;;;;;5.22;1.00;;;19.90;80.30;;;;;;5006693;28;20125;-70
2022/04/05 06:19:52;;;;;;;2.50;1.00;;;19.80;80.30;;;;;;5006441;28;20375;-72
2022/04/05 06:22:18;;;;;;;4.15;1.40;;;19.90;80.40;;;;;;5006411;28;20026;-76
2022/04/05 06:24:46;;;;;;;3.42;1.15;;;19.90;80.50;;;;;;5007366;28;20026;-78
2022/04/05 06:27:13;;;;;;;10.57;2.45;;;19.80;80.70;;;;;;5005686;28;20026;-70
2022/04/05 06:29:40;;;;;;;5.57;1.20;;;19.90;80.90;;;;;;5005779;28;20025;-70
2022/04/05 06:32:07;;;;;;;4.90;0.90;;;19.90;80.80;;;;;;5006706;28;20573;-76
2022/04/05 06:34:33;;;;;;;2.00;0.50;;;19.90;80.70;;;;;;5007671;28;20025;-72
2022/04/05 06:37:00;;;;;;;6.90;0.82;;;19.80;80.50;;;;;;5009874;28;20401;-77
2022/04/05 06:39:26;;;;;;;3.47;1.00;;;19.80;80.40;;;;;;5010459;28;20018;-80
2022/04/05 06:41:53;;;;;;;5.07;1.02;;;19.80;80.60;;;;;;5009392;28;20424;-69
2022/04/05 06:44:20;;;;;;;3.40;0.80;;;19.80;80.80;;;;;;5010572;28;20713;-79
2022/04/05 06:46:47;;;;;;;5.57;1.98;;;19.90;81.00;;;;;;5008317;28;20018;-74
2022/04/05 06:49:13;;;;;;;3.65;0.80;;;19.80;81.00;;;;;;5009080;28;20461;-79
2022/04/05 06:51:40;;;;;;;2.38;2.05;;;19.90;81.10;;;;;;5011505;28;20417;-77
2022/04/05 06:54:06;;;;;;;0.98;0.70;;;19.90;81.20;;;;;;5007705;28;20026;-75
2022/04/05 06:56:33;;;;;;;2.63;1.35;;;19.80;81.20;;;;;;5008370;28;20505;-70
2022/04/05 06:58:59;;;;;;;7.55;1.13;;;19.80;81.30;;;;;;5008455;28;20022;-76
2022/04/05 07:01:26;;;;;;;4.30;1.40;;;19.80;81.50;;;;;;5007962;28;20119;-73
2022/04/05 07:03:52;;;;;;;4.15;0.75;;;19.80;81.80;;;;;;5008618;28;20022;-71
2022/04/05 07:06:19;;;;;;;14.93;1.38;;;19.80;82.10;;;;;;5010547;28;20022;-74
2022/04/05 07:08:47;;;;;;;4.18;1.88;;;19.90;83.20;;;;;;5009995;28;20440;-78
2022/04/05 07:11:13;;;;;;;7.85;0.85;;;19.90;82.80;;;;;;5015951;28;20404;-79
2022/04/05 07:13:40;;;;;;;5.15;1.13;;;19.90;83.20;;;;;;5008498;28;20102;-79
2022/04/05 07:16:07;;;;;;;16.67;1.60;;;19.90;83.60;;;;;;5009224;28;20026;-79
2022/04/05 07:18:33;;;;;;;8.15;0.73;;;19.90;83.80;;;;;;5011305;28;20022;-75
2022/04/05 07:21:02;;;;;;;5.53;1.40;;;20.00;84.00;;;;;;5010937;28;20149;-77
2022/04/05 07:23:29;;;;;;;3.63;0.77;;;19.90;83.90;;;;;;5006851;28;20018;-80
2022/04/05 07:25:55;;;;;;;5.43;1.55;;;20.00;83.90;;;;;;5009749;28;20014;-81
2022/04/05 07:28:21;;;;;;;3.83;0.93;;;20.00;83.80;;;;;;5010476;28;20042;-76
2022/04/05 07:30:48;;;;;;;2.90;1.00;;;19.90;83.60;;;;;;5008067;28;20520;-79
2022/04/05 07:33:14;;;;;;;1.25;0.82;;;19.90;83.40;;;;;;5008709;28;20019;-77
2022/04/05 07:35:41;;;;;;;3.90;0.80;;;19.90;83.40;;;;;;5008378;28;20024;-83
2022/04/05 07:38:07;;;;;;;2.42;0.98;;;19.90;83.50;;;;;;5009299;28;20056;-80
2022/04/05 07:40:49;;;;;;;3.65;1.20;;;19.90;83.50;;;;;;5005957;28;20033;-82
2022/04/05 07:43:22;;;;;;;7.82;1.02;;;19.90;83.50;;;;;;5013702;28;20473;-82
2022/04/05 07:45:50;;;;;;;11.15;1.38;;;20.00;83.60;;;;;;5006421;28;20028;-75
2022/04/05 07:48:20;;;;;;;1.67;0.57;;;20.00;83.60;;;;;;5007427;28;20454;-80
2022/04/05 07:50:48;;;;;;;5.20;0.85;;;20.00;83.70;;;;;;5005711;28;20014;-82
2022/04/05 07:53:16;;;;;;;3.17;0.80;;;20.00;83.80;;;;;;5006595;28;20041;-72
2022/04/05 07:55:43;;;;;;;9.50;0.60;;;20.00;83.70;;;;;;5007854;28;20073;-80
2022/04/05 07:58:10;;;;;;;2.03;0.93;;;20.10;83.80;;;;;;5006845;28;20053;-80
2022/04/05 08:00:37;;;;;;;3.55;0.50;;;20.10;83.60;;;;;;5007305;28;20018;-78
2022/04/05 08:03:04;;;;;;;4.03;1.17;;;20.10;83.60;;;;;;5010409;28;20020;-81
2022/04/05 08:05:31;;;;;;;4.60;1.40;;;20.20;83.50;;;;;;5004355;28;20045;-81
2022/04/05 08:07:57;;;;;;;4.25;0.75;;;20.20;83.40;;;;;;5007528;28;20515;-81
2022/04/05 08:10:24;;;;;;;2.08;0.70;;;20.30;83.50;;;;;;5008060;28;20104;-80
2022/04/05 08:12:51;;;;;;;3.30;0.93;;;20.30;84.20;;;;;;5006695;28;20072;-72
2022/04/05 08:15:21;;;;;;;2.08;0.50;;;20.30;83.40;;;;;;5007314;28;20097;-80
2022/04/05 08:17:48;;;;;;;1.55;0.50;;;20.40;83.40;;;;;;5006490;28;20053;-80
2022/04/05 08:20:16;;;;;;;4.10;1.10;;;20.40;83.20;;;;;;5005088;28;20026;-80
2022/04/05 08:22:43;;;;;;;2.05;0.60;;;20.40;83.00;;;;;;5007212;28;20464;-80
2022/04/05 08:25:11;;;;;;;4.40;1.10;;;20.40;82.80;;;;;;5008742;28;20017;-80
2022/04/05 08:27:38;;;;;;;2.17;0.93;;;20.50;82.90;;;;;;5009322;28;20070;-77
2022/04/05 08:30:06;;;;;;;3.42;1.08;;;20.50;82.90;;;;;;5005808;28;20014;-80
2022/04/05 08:32:34;;;;;;;4.00;1.05;;;20.50;82.80;;;;;;5006267;28;20089;-80
2022/04/05 08:35:01;;;;;;;4.57;1.00;;;20.50;82.60;;;;;;5011159;28;20018;-74
2022/04/05 08:37:27;;;;;;;3.10;1.13;;;20.50;82.40;;;;;;5006845;28;20041;-76
2022/04/05 08:39:55;;;;;;;2.78;0.88;;;20.50;82.20;;;;;;5009418;28;20355;-73
2022/04/05 08:42:23;;;;;;;1.75;0.70;;;20.50;82.10;;;;;;5005501;28;20018;-78
2022/04/05 08:44:50;;;;;;;2.97;0.60;;;20.60;82.10;;;;;;5007150;28;20023;-80
2022/04/05 08:47:23;;;;;;;4.32;1.27;;;20.60;82.00;;;;;;5008861;28;20026;-72
2022/04/05 08:49:50;;;;;;;5.05;1.17;;;20.60;82.00;;;;;;5008496;28;20018;-79
2022/04/05 08:52:16;;;;;;;3.38;0.50;;;20.60;81.90;;;;;;5008784;28;20022;-78
2022/04/05 08:54:43;;;;;;;2.60;0.85;;;20.70;81.90;;;;;;5005755;28;20022;-80
2022/04/05 08:57:10;;;;;;;3.55;0.93;;;20.70;82.00;;;;;;5006226;28;20423;-70
2022/04/05 08:59:37;;;;;;;24.75;3.78;;;20.80;81.90;;;;;;5006576;28;20029;-81
2022/04/05 09:02:04;;;;;;;3.38;1.05;;;20.80;81.60;;;;;;5007951;28;20028;-78
2022/04/05 09:04:34;;;;;;;5.15;1.20;;;20.90;81.70;;;;;;5007385;28;20022;-81
2022/04/05 09:07:23;;;;;;;3.88;1.77;;;20.90;81.30;;;;;;5007997;28;20041;-77
2022/04/05 09:10:10;;;;;;;4.07;1.05;;;21.00;81.20;;;;;;5006118;28;20093;-79
2022/04/05 09:12:50;;;;;;;2.80;1.10;;;21.10;80.90;;;;;;5005029;28;20449;-74
2022/04/05 09:15:17;;;;;;;3.08;1.10;;;21.10;80.50;;;;;;5006089;28;20022;-72
2022/04/05 09:17:46;;;;;;;3.15;0.60;;;21.20;80.20;;;;;;5004095;28;20094;-81
2022/04/05 09:20:33;;;;;;;2.25;0.60;;;21.20;79.80;;;;;;5006645;28;20030;-70
2022/04/05 09:23:02;;;;;;;1.70;0.82;;;21.30;79.60;;;;;;5004005;28;20060;-72
2022/04/05 09:25:28;;;;;;;1.55;0.75;;;21.30;79.30;;;;;;5003470;28;20038;-71
2022/04/05 09:27:57;;;;;;;4.55;0.88;;;21.40;78.90;;;;;;5003925;28;20540;-70
2022/04/05 09:30:31;;;;;;;2.30;1.08;;;21.40;78.80;;;;;;5003936;28;20029;-72
2022/04/05 09:33:02;;;;;;;2.53;1.42;;;21.50;78.60;;;;;;5003889;28;20101;-81
2022/04/05 09:35:31;;;;;;;4.53;1.00;;;21.50;78.20;;;;;;5003815;28;20128;-77
2022/04/05 09:38:18;;;;;;;2.67;0.55;;;21.60;77.90;;;;;;4997729;28;20072;-75
2022/04/05 09:40:51;;;;;;;3.28;0.90;;;21.60;77.40;;;;;;5003222;28;20498;-83
2022/04/05 09:43:17;;;;;;;3.15;0.88;;;21.70;77.10;;;;;;5001184;28;20626;-83
2022/04/05 09:45:51;;;;;;;2.15;0.60;;;21.70;77.00;;;;;;5002663;28;20148;-74
2022/04/05 09:48:20;;;;;;;4.22;1.05;;;21.80;76.80;;;;;;5003492;28;20548;-80
2022/04/05 09:51:09;;;;;;;11.63;1.52;;;21.80;76.30;;;;;;5000860;28;20489;-79
2022/04/05 09:53:41;;;;;;;5.40;0.73;;;21.80;75.70;;;;;;5004495;28;20073;-79
2022/04/05 09:56:22;;;;;;;5.47;0.93;;;21.80;74.80;;;;;;5004137;28;20054;-81
2022/04/05 09:58:50;;;;;;;6.05;1.05;;;21.80;74.60;;;;;;5000540;28;20049;-81
2022/04/05 10:01:19;;;;;;;2.53;0.60;;;21.80;74.20;;;;;;5006884;28;20697;-74
2022/04/05 10:04:06;;;;;;;2.95;0.88;;;21.70;74.00;;;;;;5005720;28;20010;-78
2022/04/05 10:06:38;;;;;;;3.63;1.35;;;21.70;73.60;;;;;;5007792;28;20026;-79
2022/04/05 10:09:06;;;;;;;3.63;1.25;;;21.70;73.40;;;;;;5007744;28;20041;-78
2022/04/05 10:11:34;;;;;;;4.30;1.20;;;21.70;72.80;;;;;;5009157;28;21313;-77
2022/04/05 10:14:01;;;;;;;2.17;0.60;;;21.70;72.10;;;;;;5010083;28;20373;-82
2022/04/05 10:16:29;;;;;;;3.72;0.75;;;21.70;71.30;;;;;;5010519;28;20026;-78
2022/04/05 10:19:03;;;;;;;7.25;2.55;;;21.70;70.70;;;;;;5010631;28;20515;-75
2022/04/05 10:21:34;;;;;;;4.55;1.38;;;21.80;70.60;;;;;;5010157;28;20540;-82
2022/04/05 10:24:02;;;;;;;6.63;0.80;;;21.90;70.80;;;;;;5008886;28;20025;-75
2022/04/05 10:26:35;;;;;;;4.25;1.02;;;21.90;70.60;;;;;;5010600;28;20038;-79
2022/04/05 10:29:14;;;;;;;12.00;1.60;;;22.00;70.80;;;;;;5010537;28;20026;-73
2022/04/05 10:32:07;;;;;;;4.70;1.77;;;22.00;70.70;;;;;;5011927;28;20026;-78
2022/04/05 10:35:25;;;;;;;2.97;0.85;;;22.00;71.00;;;;;;5006909;28;20527;-79
2022/04/05 10:38:34;;;;;;;10.00;1.00;;;22.10;71.10;;;;;;5007485;28;20014;-80
2022/04/05 10:41:55;;;;;;;14.77;2.35;;;22.20;70.90;;;;;;5011104;28;20473;-80
2022/04/05 10:45:10;;;;;;;8.65;1.60;;;22.20;70.70;;;;;;5009813;28;20014;-77
2022/04/05 10:48:18;;;;;;;4.85;1.23;;;22.30;70.50;;;;;;5006993;28;20034;-77
2022/04/05 10:51:05;;;;;;;3.65;0.98;;;22.30;69.90;;;;;;5011144;28;20473;-79
2022/04/05 10:53:35;;;;;;;4.70;0.73;;;22.40;69.10;;;;;;5006811;28;20105;-77
2022/04/05 10:56:04;;;;;;;3.28;0.73;;;22.40;68.80;;;;;;5009212;28;20042;-80
2022/04/05 10:58:53;;;;;;;2.30;1.13;;;22.50;68.20;;;;;;5010141;28;20690;-74
2022/04/05 11:01:43;;;;;;;6.90;1.52;;;22.50;67.70;;;;;;5010993;28;20026;-77
2022/04/05 11:04:16;;;;;;;6.50;1.30;;;22.50;67.10;;;;;;5007438;28;20088;-75
2022/04/05 11:07:05;;;;;;;4.82;1.80;;;22.50;67.10;;;;;;5010356;28;20076;-73
2022/04/05 11:10:15;;;;;;;6.80;1.85;;;22.50;67.10;;;;;;5009763;28;20033;-77
2022/04/05 11:13:24;;;;;;;2.78;0.90;;;22.50;66.60;;;;;;5006993;28;20045;-70
2022/04/05 11:16:33;;;;;;;5.82;1.50;;;22.50;66.40;;;;;;5011893;28;20382;-72
2022/04/05 11:19:39;;;;;;;9.40;1.17;;;22.50;66.20;;;;;;5007073;28;20030;-77
2022/04/05 11:22:48;;;;;;;5.60;1.27;;;22.60;66.70;;;;;;5007381;28;20025;-70
2022/04/05 11:25:54;;;;;;;6.05;1.33;;;22.60;66.90;;;;;;5007586;28;20036;-70
2022/04/05 11:29:06;;;;;;;3.35;0.55;;;22.50;66.50;;;;;;5006721;28;20469;-70
2022/04/05 11:32:27;;;;;;;6.63;0.80;;;22.40;66.20;;;;;;5009412;28;20064;-70
2022/04/05 11:35:35;;;;;;;3.75;1.55;;;22.40;65.70;;;;;;5007672;28;20421;-81
2022/04/05 11:38:22;;;;;;;1.75;0.98;;;22.20;65.00;;;;;;5008353;28;20109;-70
2022/04/05 11:41:28;;;;;;;6.10;1.73;;;22.20;65.30;;;;;;5010715;28;20026;-70
2022/04/05 11:44:37;;;;;;;2.63;0.93;;;22.20;65.60;;;;;;5008335;28;20026;-70
2022/04/05 11:47:43;;;;;;;3.33;0.75;;;22.10;65.80;;;;;;5008491;28;20093;-70
2022/04/05 11:50:49;;;;;;;2.53;0.93;;;22.10;65.80;;;;;;5010767;28;20557;-73
2022/04/05 11:53:45;;;;;;;4.07;0.70;;;22.10;65.70;;;;;;5008295;28;20144;-70
2022/04/05 11:56:54;;;;;;;4.45;1.60;;;22.20;65.50;;;;;;5008724;28;20057;-70
2022/04/05 12:00:00;;;;;;;5.50;1.50;;;22.20;65.30;;;;;;5010443;28;20026;-70
2022/04/05 12:03:10;;;;;;;7.07;1.88;;;22.20;65.80;;;;;;5009250;28;20073;-69
2022/04/05 12:06:20;;;;;;;4.97;1.40;;;22.20;66.50;;;;;;5006353;28;20026;-70
2022/04/05 12:09:26;;;;;;;11.02;2.30;;;22.20;67.00;;;;;;5003890;28;20041;-72
2022/04/05 12:12:32;;;;;;;2.95;1.05;;;22.10;67.40;;;;;;5006309;28;20053;-70
2022/04/05 12:15:20;;;;;;;;;;;22.10;67.70;;;;;;5008575;28;20022;-70
2022/04/05 12:18:38;;;;;;;4.63;1.23;;;22.10;67.90;;;;;;5007057;28;19961;-70
2022/04/05 12:21:44;;;;;;;2.85;0.85;;;22.10;68.00;;;;;;5007997;28;20402;-74
2022/04/05 12:24:57;;;;;;;3.05;1.45;;;22.00;67.70;;;;;;5009579;28;20813;-80
2022/04/05 12:28:03;;;;;;;4.60;0.88;;;22.00;67.40;;;;;;5004543;28;20037;-80
2022/04/05 12:31:09;;;;;;;3.88;0.82;;;21.90;67.30;;;;;;5006509;28;20030;-79
2022/04/05 12:34:15;;;;;;;2.75;0.75;;;21.90;67.20;;;;;;5009333;28;20024;-72
2022/04/05 12:37:24;;;;;;;10.23;1.10;;;21.80;67.40;;;;;;5007779;28;20412;-71
2022/04/05 12:40:42;;;;;;;6.60;1.48;;;21.80;67.80;;;;;;5016449;28;20033;-74
2022/04/05 12:43:55;;;;;;;4.40;1.17;;;21.80;67.80;;;;;;5008236;28;20056;-77
2022/04/05 12:47:03;;;;;;;7.38;0.93;;;21.80;67.20;;;;;;5005413;28;20475;-73
2022/04/05 12:50:10;;;;;;;3.83;1.38;;;21.80;66.70;;;;;;5007723;28;20038;-76
2022/04/05 12:53:19;;;;;;;6.07;1.08;;;21.80;66.60;;;;;;5005643;28;20104;-70
2022/04/05 12:56:25;;;;;;;2.38;0.60;;;21.80;66.80;;;;;;5008607;28;20049;-74
2022/04/05 12:59:32;;;;;;;6.80;0.77;;;21.80;67.10;;;;;;5008638;28;20030;-70
2022/04/05 13:02:38;;;;;;;2.60;0.80;;;21.80;67.20;;;;;;5009711;28;20489;-78
2022/04/05 13:09:23;;;;;;;4.78;1.13;;;21.70;67.60;;;;;;5007461;28;20504;-70
2022/04/05 13:12:35;;;;;;;5.30;0.80;;;21.60;67.90;;;;;;4997054;28;20438;-74
2022/04/05 13:15:41;;;;;;;3.58;0.80;;;21.60;68.00;;;;;;5007011;28;20477;-78
2022/04/05 13:18:59;;;;;;;1.58;0.68;;;21.60;68.20;;;;;;5007845;28;20028;-74
2022/04/05 13:22:08;;;;;;;5.38;1.33;;;21.50;68.30;;;;;;5004098;28;20658;-74
2022/04/05 13:25:26;;;;;;;4.88;1.33;;;21.50;68.70;;;;;;5006292;28;20477;-73
2022/04/05 13:28:39;;;;;;;4.90;1.02;;;21.50;69.00;;;;;;5007252;28;20033;-79